Аэропорт: Наримановка. Костанай

ICAO: UAUU

METAR:
2019/05/26 14:00
UAUU 261400Z 25006MPS CAVOK 21/M04 Q1021 R33/CLRD70 NOSIG RMK QFE750/1000
METAR:
2019/05/03 21:03
TAF TAF UAUU 032000Z 0321/0409 18007MPS 9999 NSC